Wetterdaten: Woche 16.11.09 - 22.11.09 (KW47)
Datum Zeit Temp. Innen Temp. Aussen UV X Diff Temp. Feuchte Inne Feuchte Auss Sonnenschein Luftdruck Regen ab 0,1 Wind Sonnenschein Windben
16.11.2009 00:00 15,1 C 8,4 C 0,0 UV-I 0,0 C 62 % 91 % 0 % 1009,9 hPa 0,0 l/m 0,3 km/h (0 Bft) 0,00 h 1,6 km/h (1 Bft)
16.11.2009 01:00 15,2 C 8,0 C 0,0 UV-I 0,0 C 62 % 92 % 0 % 1009,4 hPa 0,0 l/m 0,4 km/h (0 Bft) 0,00 h 1,2 km/h (1 Bft)
16.11.2009 02:00 15,1 C 7,6 C 0,0 UV-I 0,0 C 62 % 92 % 0 % 1009,0 hPa 0,0 l/m 0,9 km/h (0 Bft) 0,00 h 2,3 km/h (1 Bft)
16.11.2009 03:00 15,0 C 7,4 C 0,0 UV-I 0,0 C 61 % 93 % 0 % 1008,9 hPa 0,0 l/m 0,9 km/h (0 Bft) 0,00 h 1,8 km/h (1 Bft)
16.11.2009 04:00 14,9 C 7,4 C 0,0 UV-I 0,0 C 62 % 94 % 0 % 1008,4 hPa 0,0 l/m 2,6 km/h (1 Bft) 0,00 h 4,8 km/h (1 Bft)
16.11.2009 05:00 14,9 C 7,5 C 0,0 UV-I 0,0 C 62 % 94 % 0 % 1007,9 hPa 0,0 l/m 0,4 km/h (0 Bft) 0,00 h 1,1 km/h (1 Bft)
16.11.2009 06:00 15,0 C 7,8 C 0,0 UV-I 0,0 C 62 % 94 % 0 % 1007,1 hPa 0,0 l/m 0,5 km/h (0 Bft) 0,00 h 1,2 km/h (1 Bft)
16.11.2009 07:00 15,1 C 8,1 C 0,0 UV-I 0,0 C 62 % 94 % 0 % 1006,4 hPa 0,0 l/m 1,6 km/h (1 Bft) 0,00 h 4,0 km/h (1 Bft)
16.11.2009 08:00 15,1 C 8,8 C 0,0 UV-I 0,0 C 63 % 93 % 0 % 1006,1 hPa 0,0 l/m 4,8 km/h (1 Bft) 0,00 h 9,1 km/h (2 Bft)
16.11.2009 09:00 15,2 C 9,3 C 0,0 UV-I 0,0 C 64 % 93 % 0 % 1005,5 hPa 0,0 l/m 3,2 km/h (1 Bft) 0,00 h 8,6 km/h (2 Bft)
16.11.2009 10:00 15,3 C 10,1 C 0,0 UV-I 0,1 C 65 % 93 % 2 % 1004,9 hPa 0,0 l/m 6,0 km/h (2 Bft) 0,00 h 10,5 km/h (2 Bft)
16.11.2009 11:00 15,4 C 10,8 C 0,0 UV-I 0,0 C 65 % 92 % 1 % 1004,7 hPa 0,0 l/m 8,6 km/h (2 Bft) 0,00 h 14,0 km/h (3 Bft)
16.11.2009 12:00 15,6 C 11,6 C 0,1 UV-I 0,4 C 66 % 92 % 10 % 1004,1 hPa 0,0 l/m 4,9 km/h (1 Bft) 0,00 h 7,7 km/h (2 Bft)
16.11.2009 13:00 15,9 C 12,3 C 0,0 UV-I 0,3 C 67 % 91 % 8 % 1003,9 hPa 0,0 l/m 3,5 km/h (1 Bft) 0,00 h 5,9 km/h (2 Bft)
16.11.2009 14:00 16,1 C 13,3 C 0,0 UV-I 0,6 C 67 % 90 % 18 % 1004,0 hPa 0,0 l/m 3,9 km/h (1 Bft) 0,00 h 7,2 km/h (2 Bft)
16.11.2009 15:00 16,4 C 15,1 C 0,1 UV-I 0,4 C 68 % 85 % 10 % 1004,1 hPa 0,0 l/m 5,1 km/h (1 Bft) 0,00 h 8,4 km/h (2 Bft)
16.11.2009 16:00 16,6 C 15,4 C 0,0 UV-I 0,0 C 68 % 82 % 0 % 1004,5 hPa 0,0 l/m 4,6 km/h (1 Bft) 0,00 h 9,4 km/h (2 Bft)
16.11.2009 17:00 16,5 C 15,3 C 0,0 UV-I 0,0 C 68 % 80 % 0 % 1005,0 hPa 0,0 l/m 5,6 km/h (1 Bft) 0,00 h 9,8 km/h (2 Bft)
16.11.2009 18:00 16,5 C 14,8 C 0,0 UV-I 0,0 C 68 % 81 % 0 % 1005,9 hPa 0,0 l/m 2,5 km/h (1 Bft) 0,00 h 4,7 km/h (1 Bft)
16.11.2009 19:00 16,5 C 13,8 C 0,0 UV-I 0,0 C 67 % 83 % 0 % 1006,7 hPa 0,0 l/m 0,7 km/h (0 Bft) 0,00 h 1,6 km/h (1 Bft)
16.11.2009 20:00 16,3 C 13,0 C 0,0 UV-I 0,0 C 66 % 83 % 0 % 1007,4 hPa 0,0 l/m 0,5 km/h (0 Bft) 0,00 h 1,6 km/h (1 Bft)
16.11.2009 21:00 16,3 C 12,4 C 0,0 UV-I 0,0 C 65 % 82 % 0 % 1007,9 hPa 0,0 l/m 1,1 km/h (1 Bft) 0,00 h 2,8 km/h (1 Bft)
16.11.2009 22:00 16,1 C 11,9 C 0,0 UV-I 0,0 C 62 % 80 % 0 % 1008,3 hPa 0,0 l/m 0,5 km/h (0 Bft) 0,00 h 1,2 km/h (1 Bft)
16.11.2009 23:00 16,2 C 11,1 C 0,0 UV-I 0,0 C 62 % 84 % 0 % 1008,6 hPa 0,0 l/m 0,4 km/h (0 Bft) 0,00 h 1,1 km/h (1 Bft)
17.11.2009 00:00 16,1 C 10,8 C 0,0 UV-I 0,0 C 63 % 86 % 0 % 1008,7 hPa 0,0 l/m 1,8 km/h (1 Bft) 0,00 h 5,0 km/h (1 Bft)
17.11.2009 01:00 15,9 C 12,0 C 0,0 UV-I 0,0 C 61 % 80 % 0 % 1008,6 hPa 0,0 l/m 3,8 km/h (1 Bft) 0,00 h 7,2 km/h (2 Bft)
17.11.2009 02:00 15,9 C 12,4 C 0,0 UV-I 0,0 C 60 % 74 % 0 % 1008,4 hPa 0,0 l/m 4,3 km/h (1 Bft) 0,00 h 7,2 km/h (2 Bft)
17.11.2009 03:00 15,9 C 12,4 C 0,0 UV-I 0,0 C 59 % 74 % 0 % 1008,9 hPa 0,0 l/m 2,1 km/h (1 Bft) 0,00 h 3,8 km/h (1 Bft)
17.11.2009 04:00 15,9 C 12,0 C 0,0 UV-I 0,0 C 60 % 78 % 0 % 1008,6 hPa 0,0 l/m 1,7 km/h (1 Bft) 0,00 h 3,8 km/h (1 Bft)
17.11.2009 05:00 16,0 C 11,6 C 0,0 UV-I 0,0 C 61 % 81 % 0 % 1008,7 hPa 0,0 l/m 1,2 km/h (1 Bft) 0,00 h 2,5 km/h (1 Bft)
17.11.2009 06:00 15,9 C 11,7 C 0,0 UV-I 0,0 C 60 % 79 % 0 % 1008,7 hPa 0,0 l/m 3,0 km/h (1 Bft) 0,00 h 6,6 km/h (2 Bft)
17.11.2009 07:00 15,9 C 11,7 C 0,0 UV-I 0,0 C 60 % 80 % 0 % 1008,4 hPa 0,0 l/m 1,7 km/h (1 Bft) 0,00 h 3,5 km/h (1 Bft)
17.11.2009 08:00 16,0 C 11,3 C 0,0 UV-I 0,0 C 61 % 84 % 0 % 1008,8 hPa 0,0 l/m 2,1 km/h (1 Bft) 0,00 h 3,9 km/h (1 Bft)
17.11.2009 09:00 15,9 C 11,6 C 0,0 UV-I 0,0 C 61 % 84 % 0 % 1009,1 hPa 0,0 l/m 3,7 km/h (1 Bft) 0,00 h 8,1 km/h (2 Bft)
17.11.2009 10:00 16,1 C 11,9 C 0,2 UV-I 0,1 C 61 % 81 % 4 % 1009,2 hPa 0,0 l/m 3,7 km/h (1 Bft) 0,00 h 5,9 km/h (2 Bft)
17.11.2009 11:00 16,2 C 12,0 C 0,2 UV-I 0,0 C 60 % 79 % 1 % 1009,8 hPa 0,0 l/m 2,9 km/h (1 Bft) 0,00 h 6,6 km/h (2 Bft)
17.11.2009 12:00 16,2 C 12,1 C 0,6 UV-I 0,2 C 59 % 77 % 7 % 1009,8 hPa 0,0 l/m 2,5 km/h (1 Bft) 0,00 h 5,3 km/h (1 Bft)
17.11.2009 13:00 16,3 C 12,4 C 0,8 UV-I 0,3 C 58 % 75 % 7 % 1009,4 hPa 0,0 l/m 3,9 km/h (1 Bft) 0,00 h 6,7 km/h (2 Bft)
17.11.2009 14:00 16,4 C 12,7 C 0,7 UV-I 0,3 C 58 % 74 % 7 % 1009,3 hPa 0,0 l/m 4,5 km/h (1 Bft) 0,00 h 8,1 km/h (2 Bft)
17.11.2009 15:00 16,3 C 12,6 C 0,1 UV-I 0,0 C 58 % 75 % 1 % 1009,7 hPa 0,0 l/m 4,4 km/h (1 Bft) 0,00 h 7,5 km/h (2 Bft)
17.11.2009 16:00 16,1 C 12,2 C 0,0 UV-I 0,0 C 59 % 78 % 0 % 1010,5 hPa 0,0 l/m 4,5 km/h (1 Bft) 0,00 h 7,2 km/h (2 Bft)
17.11.2009 17:00 15,9 C 11,5 C 0,0 UV-I 0,0 C 61 % 82 % 0 % 1011,1 hPa 0,3 l/m 2,2 km/h (1 Bft) 0,00 h 5,0 km/h (1 Bft)
17.11.2009 18:00 15,7 C 10,5 C 0,0 UV-I 0,0 C 62 % 87 % 0 % 1011,8 hPa 2,0 l/m 3,4 km/h (1 Bft) 0,00 h 6,9 km/h (2 Bft)
17.11.2009 19:00 15,6 C 9,7 C 0,0 UV-I 0,0 C 63 % 89 % 0 % 1012,4 hPa 0,0 l/m 1,2 km/h (1 Bft) 0,00 h 3,7 km/h (1 Bft)
17.11.2009 20:00 15,4 C 10,1 C 0,0 UV-I 0,0 C 64 % 90 % 0 % 1013,2 hPa 0,0 l/m 4,9 km/h (1 Bft) 0,00 h 8,9 km/h (2 Bft)
17.11.2009 21:00 15,2 C 10,0 C 0,0 UV-I 0,0 C 63 % 87 % 0 % 1014,1 hPa 0,0 l/m 5,2 km/h (1 Bft) 0,00 h 8,0 km/h (2 Bft)
17.11.2009 22:00 15,0 C 9,5 C 0,0 UV-I 0,0 C 62 % 88 % 0 % 1014,7 hPa 0,0 l/m 4,1 km/h (1 Bft) 0,00 h 6,3 km/h (2 Bft)
17.11.2009 23:00 14,8 C 9,3 C 0,0 UV-I 0,0 C 63 % 90 % 0 % 1015,4 hPa 0,0 l/m 4,4 km/h (1 Bft) 0,00 h 7,5 km/h (2 Bft)
18.11.2009 00:00 14,8 C 9,6 C 0,0 UV-I 0,0 C 64 % 90 % 0 % 1015,7 hPa 0,0 l/m 5,6 km/h (1 Bft) 0,00 h 11,2 km/h (2 Bft)
18.11.2009 01:00 14,7 C 9,6 C 0,0 UV-I 0,0 C 64 % 89 % 0 % 1015,9 hPa 0,0 l/m 5,6 km/h (1 Bft) 0,00 h 10,3 km/h (2 Bft)
18.11.2009 02:00 14,7 C 9,5 C 0,0 UV-I 0,0 C 63 % 88 % 0 % 1015,8 hPa 0,0 l/m 5,8 km/h (2 Bft) 0,00 h 10,7 km/h (2 Bft)
18.11.2009 03:00 14,6 C 9,4 C 0,0 UV-I 0,0 C 63 % 88 % 0 % 1015,8 hPa 0,0 l/m 5,0 km/h (1 Bft) 0,00 h 7,8 km/h (2 Bft)
18.11.2009 04:00 14,4 C 9,3 C 0,0 UV-I 0,0 C 63 % 87 % 0 % 1015,9 hPa 0,0 l/m 5,3 km/h (1 Bft) 0,00 h 9,1 km/h (2 Bft)
18.11.2009 05:00 14,3 C 9,3 C 0,0 UV-I 0,0 C 62 % 87 % 0 % 1016,1 hPa 0,0 l/m 5,1 km/h (1 Bft) 0,00 h 9,4 km/h (2 Bft)
18.11.2009 06:00 14,4 C 9,4 C 0,0 UV-I 0,0 C 62 % 86 % 0 % 1016,1 hPa 0,0 l/m 5,9 km/h (2 Bft) 0,00 h 11,2 km/h (2 Bft)
18.11.2009 07:00 14,3 C 9,5 C 0,0 UV-I 0,0 C 62 % 85 % 0 % 1015,6 hPa 0,0 l/m 7,2 km/h (2 Bft) 0,00 h 12,3 km/h (3 Bft)
18.11.2009 08:00 14,2 C 9,7 C 0,0 UV-I 0,0 C 61 % 82 % 0 % 1015,4 hPa 0,0 l/m 7,2 km/h (2 Bft) 0,00 h 13,3 km/h (3 Bft)
18.11.2009 09:00 14,3 C 10,3 C 0,5 UV-I 0,2 C 60 % 78 % 7 % 1015,4 hPa 0,0 l/m 8,6 km/h (2 Bft) 0,00 h 15,7 km/h (3 Bft)
18.11.2009 10:00 14,5 C 11,0 C 0,8 UV-I 0,6 C 59 % 75 % 17 % 1015,0 hPa 0,0 l/m 9,2 km/h (2 Bft) 0,00 h 16,4 km/h (3 Bft)
18.11.2009 11:00 14,8 C 11,8 C 1,2 UV-I 0,6 C 58 % 72 % 17 % 1014,8 hPa 0,0 l/m 10,4 km/h (2 Bft) 0,00 h 16,2 km/h (3 Bft)
18.11.2009 12:00 15,0 C 12,3 C 1,4 UV-I 0,2 C 58 % 69 % 6 % 1014,4 hPa 0,0 l/m 11,0 km/h (2 Bft) 0,00 h 18,6 km/h (3 Bft)
18.11.2009 13:00 15,2 C 12,8 C 1,1 UV-I 0,6 C 57 % 68 % 18 % 1014,6 hPa 0,0 l/m 11,7 km/h (2 Bft) 0,00 h 19,8 km/h (3 Bft)
18.11.2009 14:00 15,2 C 12,8 C 0,5 UV-I 0,0 C 57 % 69 % 0 % 1014,4 hPa 0,0 l/m 11,9 km/h (2 Bft) 0,00 h 19,8 km/h (3 Bft)
18.11.2009 15:00 15,1 C 12,8 C 0,0 UV-I 0,0 C 58 % 70 % 0 % 1014,4 hPa 0,0 l/m 13,8 km/h (3 Bft) 0,00 h 25,9 km/h (4 Bft)
18.11.2009 16:00 15,3 C 12,9 C 0,0 UV-I 0,0 C 58 % 71 % 0 % 1014,7 hPa 0,0 l/m 13,9 km/h (3 Bft) 0,00 h 21,9 km/h (4 Bft)
18.11.2009 17:00 15,6 C 12,9 C 0,0 UV-I 0,0 C 58 % 72 % 0 % 1015,6 hPa 0,0 l/m 12,2 km/h (2 Bft) 0,00 h 21,3 km/h (4 Bft)
18.11.2009 18:00 15,6 C 13,0 C 0,0 UV-I 0,0 C 59 % 73 % 0 % 1016,0 hPa 1,0 l/m 12,3 km/h (3 Bft) 0,00 h 18,3 km/h (3 Bft)
18.11.2009 19:00 15,8 C 13,1 C 0,0 UV-I 0,0 C 59 % 73 % 0 % 1017,0 hPa 0,0 l/m 10,7 km/h (2 Bft) 0,00 h 18,1 km/h (3 Bft)
18.11.2009 20:00 15,8 C 13,0 C 0,0 UV-I 0,0 C 59 % 74 % 0 % 1017,6 hPa 0,0 l/m 8,9 km/h (2 Bft) 0,00 h 12,9 km/h (3 Bft)
18.11.2009 21:00 15,9 C 12,8 C 0,0 UV-I 0,0 C 59 % 75 % 0 % 1017,8 hPa 0,0 l/m 9,0 km/h (2 Bft) 0,00 h 13,4 km/h (3 Bft)
18.11.2009 22:00 16,0 C 12,7 C 0,0 UV-I 0,0 C 59 % 75 % 0 % 1018,3 hPa 0,0 l/m 8,0 km/h (2 Bft) 0,00 h 12,8 km/h (3 Bft)
18.11.2009 23:00 15,9 C 12,5 C 0,0 UV-I 0,0 C 59 % 77 % 0 % 1018,5 hPa 0,0 l/m 6,4 km/h (2 Bft) 0,00 h 11,6 km/h (2 Bft)
19.11.2009 00:00 16,0 C 12,4 C 0,0 UV-I 0,0 C 60 % 78 % 0 % 1019,0 hPa 0,0 l/m 6,6 km/h (2 Bft) 0,00 h 11,4 km/h (2 Bft)
19.11.2009 01:00 16,1 C 11,9 C 0,0 UV-I 0,0 C 60 % 80 % 0 % 1019,5 hPa 0,0 l/m 4,8 km/h (1 Bft) 0,00 h 9,4 km/h (2 Bft)
19.11.2009 02:00 16,2 C 11,2 C 0,0 UV-I 0,0 C 60 % 82 % 0 % 1019,3 hPa 0,0 l/m 3,9 km/h (1 Bft) 0,00 h 7,3 km/h (2 Bft)
19.11.2009 03:00 16,1 C 11,0 C 0,0 UV-I 0,0 C 60 % 83 % 0 % 1019,5 hPa 0,0 l/m 5,2 km/h (1 Bft) 0,00 h 10,2 km/h (2 Bft)
19.11.2009 04:00 16,0 C 10,7 C 0,0 UV-I 0,0 C 60 % 84 % 0 % 1019,5 hPa 0,0 l/m 4,6 km/h (1 Bft) 0,00 h 8,1 km/h (2 Bft)
19.11.2009 05:00 15,9 C 10,3 C 0,0 UV-I 0,0 C 60 % 84 % 0 % 1019,8 hPa 0,0 l/m 3,8 km/h (1 Bft) 0,00 h 7,5 km/h (2 Bft)
19.11.2009 06:00 16,0 C 10,3 C 0,0 UV-I 0,0 C 60 % 84 % 0 % 1019,8 hPa 0,0 l/m 4,6 km/h (1 Bft) 0,00 h 8,1 km/h (2 Bft)
19.11.2009 07:00 15,8 C 10,3 C 0,0 UV-I 0,0 C 59 % 84 % 0 % 1020,1 hPa 0,0 l/m 5,1 km/h (1 Bft) 0,00 h 7,3 km/h (2 Bft)
19.11.2009 08:00 15,3 C 10,3 C 0,0 UV-I 0,0 C 59 % 82 % 0 % 1020,1 hPa 0,0 l/m 4,3 km/h (1 Bft) 0,00 h 7,3 km/h (2 Bft)
19.11.2009 09:00 15,2 C 10,3 C 0,4 UV-I 0,0 C 59 % 81 % 0 % 1020,0 hPa 0,0 l/m 5,6 km/h (1 Bft) 0,00 h 9,4 km/h (2 Bft)
19.11.2009 10:00 15,2 C 11,0 C 1,3 UV-I 4,5 C 59 % 78 % 91 % 1019,7 hPa 0,0 l/m 6,8 km/h (2 Bft) 0,87 h 12,8 km/h (3 Bft)
19.11.2009 11:00 15,6 C 13,4 C 1,7 UV-I 5,7 C 57 % 68 % 100 % 1020,1 hPa 0,0 l/m 4,9 km/h (1 Bft) 0,97 h 9,8 km/h (2 Bft)
19.11.2009 12:00 16,1 C 14,7 C 1,8 UV-I 2,7 C 53 % 56 % 72 % 1019,9 hPa 0,0 l/m 5,7 km/h (1 Bft) 0,37 h 11,2 km/h (2 Bft)
19.11.2009 13:00 16,4 C 14,7 C 1,3 UV-I 0,7 C 51 % 55 % 21 % 1019,8 hPa 0,0 l/m 5,1 km/h (1 Bft) 0,00 h 8,0 km/h (2 Bft)
19.11.2009 14:00 16,8 C 14,9 C 1,0 UV-I 1,2 C 51 % 58 % 34 % 1019,9 hPa 0,0 l/m 2,1 km/h (1 Bft) 0,00 h 4,6 km/h (1 Bft)
19.11.2009 15:00 17,1 C 14,7 C 0,6 UV-I 0,4 C 51 % 58 % 12 % 1019,7 hPa 0,0 l/m 2,5 km/h (1 Bft) 0,00 h 4,4 km/h (1 Bft)
19.11.2009 16:00 16,8 C 13,8 C 0,0 UV-I 0,0 C 51 % 62 % 0 % 1019,2 hPa 0,0 l/m 2,4 km/h (1 Bft) 0,00 h 4,9 km/h (1 Bft)
19.11.2009 17:00 16,5 C 12,1 C 0,0 UV-I 0,0 C 52 % 68 % 0 % 1019,1 hPa 0,0 l/m 2,1 km/h (1 Bft) 0,00 h 4,1 km/h (1 Bft)
19.11.2009 18:00 16,2 C 10,8 C 0,0 UV-I 0,0 C 52 % 71 % 0 % 1018,9 hPa 0,0 l/m 4,1 km/h (1 Bft) 0,00 h 6,2 km/h (2 Bft)
19.11.2009 19:00 15,9 C 10,3 C 0,0 UV-I 0,0 C 53 % 76 % 0 % 1018,8 hPa 0,0 l/m 7,2 km/h (2 Bft) 0,00 h 11,1 km/h (2 Bft)
19.11.2009 20:00 15,7 C 10,1 C 0,0 UV-I 0,0 C 55 % 80 % 0 % 1018,9 hPa 0,0 l/m 7,9 km/h (2 Bft) 0,00 h 12,1 km/h (2 Bft)
19.11.2009 21:00 15,6 C 9,4 C 0,0 UV-I 0,0 C 56 % 82 % 0 % 1019,2 hPa 0,0 l/m 5,4 km/h (1 Bft) 0,00 h 6,8 km/h (2 Bft)
19.11.2009 22:00 15,5 C 8,7 C 0,0 UV-I 0,0 C 56 % 84 % 0 % 1018,6 hPa 0,0 l/m 2,7 km/h (1 Bft) 0,00 h 4,4 km/h (1 Bft)
19.11.2009 23:00 15,4 C 8,2 C 0,0 UV-I 0,0 C 56 % 86 % 0 % 1018,4 hPa 0,0 l/m 2,0 km/h (1 Bft) 0,00 h 3,6 km/h (1 Bft)
20.11.2009 00:00 15,3 C 8,1 C 0,0 UV-I 0,0 C 57 % 87 % 0 % 1017,9 hPa 0,0 l/m 5,0 km/h (1 Bft) 0,00 h 7,6 km/h (2 Bft)
20.11.2009 01:00 15,2 C 8,0 C 0,0 UV-I 0,0 C 57 % 88 % 0 % 1017,6 hPa 0,0 l/m 4,3 km/h (1 Bft) 0,00 h 5,8 km/h (1 Bft)
20.11.2009 02:00 15,2 C 8,2 C 0,0 UV-I 0,0 C 58 % 88 % 0 % 1017,2 hPa 0,0 l/m 4,9 km/h (1 Bft) 0,00 h 8,0 km/h (2 Bft)
20.11.2009 03:00 15,2 C 8,3 C 0,0 UV-I 0,0 C 58 % 88 % 0 % 1017,0 hPa 0,0 l/m 3,9 km/h (1 Bft) 0,00 h 7,1 km/h (2 Bft)
20.11.2009 04:00 15,1 C 8,3 C 0,0 UV-I 0,0 C 58 % 87 % 0 % 1016,6 hPa 0,0 l/m 4,2 km/h (1 Bft) 0,00 h 6,5 km/h (2 Bft)
20.11.2009 05:00 15,1 C 8,3 C 0,0 UV-I 0,0 C 58 % 87 % 0 % 1016,3 hPa 0,0 l/m 2,7 km/h (1 Bft) 0,00 h 5,0 km/h (1 Bft)
20.11.2009 06:00 15,0 C 8,1 C 0,0 UV-I 0,0 C 58 % 87 % 0 % 1016,0 hPa 0,0 l/m 3,1 km/h (1 Bft) 0,00 h 4,5 km/h (1 Bft)
20.11.2009 07:00 14,9 C 8,4 C 0,0 UV-I 0,0 C 58 % 87 % 0 % 1016,1 hPa 0,0 l/m 6,1 km/h (2 Bft) 0,00 h 12,5 km/h (3 Bft)
20.11.2009 08:00 14,8 C 8,4 C 0,0 UV-I 0,0 C 58 % 87 % 0 % 1016,5 hPa 0,0 l/m 5,0 km/h (1 Bft) 0,00 h 7,5 km/h (2 Bft)
20.11.2009 09:00 14,9 C 8,7 C 0,4 UV-I 1,1 C 58 % 87 % 31 % 1016,6 hPa 0,0 l/m 4,2 km/h (1 Bft) 0,30 h 5,7 km/h (1 Bft)
20.11.2009 10:00 15,2 C 10,1 C 1,0 UV-I 5,6 C 59 % 86 % 100 % 1017,5 hPa 0,0 l/m 2,3 km/h (1 Bft) 0,87 h 4,8 km/h (1 Bft)
20.11.2009 11:00 15,7 C 12,8 C 1,3 UV-I 6,1 C 59 % 82 % 100 % 1018,1 hPa 0,0 l/m 3,2 km/h (1 Bft) 0,93 h 7,6 km/h (2 Bft)
20.11.2009 12:00 16,2 C 15,9 C 1,6 UV-I 5,2 C 60 % 73 % 100 % 1018,2 hPa 0,0 l/m 4,4 km/h (1 Bft) 0,97 h 6,2 km/h (2 Bft)
20.11.2009 13:00 17,0 C 18,0 C 1,5 UV-I 4,1 C 60 % 66 % 97 % 1018,1 hPa 0,0 l/m 5,9 km/h (2 Bft) 0,65 h 8,2 km/h (2 Bft)
20.11.2009 14:00 17,9 C 18,5 C 0,7 UV-I 1,2 C 58 % 61 % 33 % 1019,4 hPa 0,0 l/m 4,6 km/h (1 Bft) 0,10 h 7,2 km/h (2 Bft)
20.11.2009 15:00 17,7 C 17,7 C 0,1 UV-I 0,0 C 57 % 59 % 0 % 1018,7 hPa 0,0 l/m 4,3 km/h (1 Bft) 0,00 h 6,6 km/h (2 Bft)
20.11.2009 16:00 17,4 C 16,9 C 0,0 UV-I 0,0 C 56 % 60 % 0 % 1019,0 hPa 0,0 l/m 5,7 km/h (1 Bft) 0,00 h 7,5 km/h (2 Bft)
20.11.2009 17:00 17,2 C 16,4 C 0,0 UV-I 0,0 C 56 % 63 % 0 % 1019,6 hPa 0,0 l/m 6,3 km/h (2 Bft) 0,00 h 10,1 km/h (2 Bft)
20.11.2009 18:00 17,1 C 16,1 C 0,0 UV-I 0,0 C 57 % 64 % 0 % 1020,1 hPa 0,0 l/m 6,4 km/h (2 Bft) 0,00 h 9,9 km/h (2 Bft)
20.11.2009 19:00 17,1 C 15,9 C 0,0 UV-I 0,0 C 58 % 67 % 0 % 1020,8 hPa 0,1 l/m 6,2 km/h (2 Bft) 0,00 h 9,7 km/h (2 Bft)
20.11.2009 20:00 17,2 C 15,5 C 0,0 UV-I 0,0 C 58 % 69 % 0 % 1021,5 hPa 0,0 l/m 3,7 km/h (1 Bft) 0,00 h 5,5 km/h (1 Bft)
20.11.2009 21:00 17,2 C 15,0 C 0,0 UV-I 0,0 C 59 % 73 % 0 % 1022,2 hPa 0,1 l/m 1,0 km/h (0 Bft) 0,00 h 1,6 km/h (1 Bft)
20.11.2009 22:00 17,2 C 14,1 C 0,0 UV-I 0,0 C 61 % 79 % 0 % 1022,7 hPa 0,0 l/m 0,0 km/h (0 Bft) 0,00 h 0,1 km/h (0 Bft)
20.11.2009 23:00 17,2 C 13,4 C 0,0 UV-I 0,0 C 63 % 83 % 0 % 1023,2 hPa 0,0 l/m 0,0 km/h (0 Bft) 0,00 h 0,0 km/h (0 Bft)
21.11.2009 00:00 17,2 C 13,1 C 0,0 UV-I 0,0 C 64 % 85 % 0 % 1023,6 hPa 0,0 l/m 0,4 km/h (0 Bft) 0,00 h 0,8 km/h (0 Bft)
21.11.2009 01:00 17,1 C 13,3 C 0,0 UV-I 0,0 C 64 % 85 % 0 % 1024,1 hPa 0,0 l/m 0,9 km/h (0 Bft) 0,00 h 2,5 km/h (1 Bft)
21.11.2009 02:00 17,1 C 13,5 C 0,0 UV-I 0,0 C 65 % 86 % 0 % 1023,9 hPa 0,0 l/m 0,8 km/h (0 Bft) 0,00 h 2,0 km/h (1 Bft)
21.11.2009 03:00 17,1 C 13,5 C 0,0 UV-I 0,0 C 65 % 86 % 0 % 1023,9 hPa 0,0 l/m 1,1 km/h (1 Bft) 0,00 h 1,9 km/h (1 Bft)
21.11.2009 04:00 17,2 C 13,2 C 0,0 UV-I 0,0 C 65 % 87 % 0 % 1023,8 hPa 0,0 l/m 2,6 km/h (1 Bft) 0,00 h 3,5 km/h (1 Bft)
21.11.2009 05:00 17,2 C 13,1 C 0,0 UV-I 0,0 C 65 % 88 % 0 % 1024,3 hPa 0,0 l/m 2,0 km/h (1 Bft) 0,00 h 3,0 km/h (1 Bft)
21.11.2009 06:00 17,2 C 12,9 C 0,0 UV-I 0,0 C 66 % 89 % 0 % 1024,5 hPa 0,0 l/m 1,2 km/h (1 Bft) 0,00 h 2,5 km/h (1 Bft)
21.11.2009 07:00 17,1 C 12,6 C 0,0 UV-I 0,0 C 66 % 90 % 0 % 1023,7 hPa 0,1 l/m 1,0 km/h (0 Bft) 0,00 h 1,9 km/h (1 Bft)
21.11.2009 08:00 17,0 C 12,0 C 0,0 UV-I 0,0 C 66 % 90 % 0 % 1023,5 hPa 0,0 l/m 1,9 km/h (1 Bft) 0,00 h 2,5 km/h (1 Bft)
21.11.2009 09:00 17,0 C 11,5 C 0,3 UV-I 0,8 C 65 % 90 % 22 % 1023,8 hPa 0,0 l/m 1,0 km/h (0 Bft) 0,23 h 2,3 km/h (1 Bft)
21.11.2009 10:00 17,1 C 12,2 C 0,9 UV-I 4,7 C 64 % 89 % 100 % 1023,2 hPa 0,0 l/m 4,4 km/h (1 Bft) 0,97 h 7,1 km/h (2 Bft)
21.11.2009 11:00 17,2 C 14,4 C 1,4 UV-I 5,7 C 64 % 84 % 100 % 1023,0 hPa 0,0 l/m 3,6 km/h (1 Bft) 1,00 h 5,3 km/h (1 Bft)
21.11.2009 12:00 17,5 C 16,0 C 1,5 UV-I 2,2 C 64 % 77 % 50 % 1022,5 hPa 0,0 l/m 3,6 km/h (1 Bft) 0,43 h 5,5 km/h (1 Bft)
21.11.2009 13:00 17,7 C 15,3 C 1,0 UV-I 0,0 C 64 % 79 % 0 % 1021,6 hPa 0,0 l/m 1,8 km/h (1 Bft) 0,00 h 2,5 km/h (1 Bft)
21.11.2009 14:00 17,8 C 15,3 C 0,9 UV-I 0,0 C 64 % 80 % 1 % 1020,8 hPa 0,0 l/m 2,8 km/h (1 Bft) 0,00 h 4,2 km/h (1 Bft)
21.11.2009 15:00 17,8 C 15,1 C 0,3 UV-I 0,0 C 63 % 79 % 0 % 1019,8 hPa 0,0 l/m 3,9 km/h (1 Bft) 0,00 h 5,5 km/h (1 Bft)
21.11.2009 16:00 17,7 C 14,8 C 0,0 UV-I 0,0 C 63 % 79 % 0 % 1019,0 hPa 0,0 l/m 3,0 km/h (1 Bft) 0,00 h 4,2 km/h (1 Bft)
21.11.2009 17:00 17,6 C 14,5 C 0,0 UV-I 0,0 C 63 % 78 % 0 % 1018,1 hPa 0,0 l/m 3,4 km/h (1 Bft) 0,00 h 5,5 km/h (1 Bft)
21.11.2009 18:00 17,5 C 14,3 C 0,0 UV-I 0,0 C 62 % 77 % 0 % 1017,2 hPa 0,0 l/m 5,4 km/h (1 Bft) 0,00 h 6,6 km/h (2 Bft)
21.11.2009 19:00 17,4 C 14,2 C 0,0 UV-I 0,0 C 62 % 77 % 0 % 1016,7 hPa 0,0 l/m 5,8 km/h (2 Bft) 0,00 h 7,3 km/h (2 Bft)
21.11.2009 20:00 17,4 C 14,1 C 0,0 UV-I 0,0 C 61 % 77 % 0 % 1016,7 hPa 0,0 l/m 8,7 km/h (2 Bft) 0,00 h 12,1 km/h (2 Bft)
21.11.2009 21:00 17,4 C 13,5 C 0,0 UV-I 0,0 C 62 % 81 % 0 % 1015,9 hPa 0,1 l/m 5,3 km/h (1 Bft) 0,00 h 7,1 km/h (2 Bft)
21.11.2009 22:00 17,4 C 13,0 C 0,0 UV-I 0,0 C 63 % 83 % 0 % 1015,5 hPa 0,0 l/m 3,0 km/h (1 Bft) 0,00 h 4,0 km/h (1 Bft)
21.11.2009 23:00 17,2 C 12,7 C 0,0 UV-I 0,0 C 63 % 84 % 0 % 1014,9 hPa 0,0 l/m 3,0 km/h (1 Bft) 0,00 h 5,5 km/h (1 Bft)
22.11.2009 00:00 17,3 C 12,4 C 0,0 UV-I 0,0 C 63 % 85 % 0 % 1013,5 hPa 0,1 l/m 3,6 km/h (1 Bft) 0,00 h 6,7 km/h (2 Bft)
22.11.2009 01:00 17,2 C 12,4 C 0,0 UV-I 0,0 C 63 % 85 % 0 % 1012,5 hPa 0,0 l/m 5,7 km/h (1 Bft) 0,00 h 10,5 km/h (2 Bft)
22.11.2009 02:00 17,1 C 12,4 C 0,0 UV-I 0,0 C 63 % 84 % 0 % 1011,8 hPa 0,0 l/m 5,3 km/h (1 Bft) 0,00 h 6,8 km/h (2 Bft)
22.11.2009 03:00 17,1 C 12,5 C 0,0 UV-I 0,1 C 62 % 84 % 0 % 1011,4 hPa 0,0 l/m 6,5 km/h (2 Bft) 0,00 h 8,6 km/h (2 Bft)
22.11.2009 04:00 17,2 C 13,0 C 0,0 UV-I 0,0 C 62 % 82 % 0 % 1010,6 hPa 0,0 l/m 4,7 km/h (1 Bft) 0,00 h 5,9 km/h (2 Bft)
22.11.2009 05:00 17,2 C 13,1 C 0,0 UV-I 0,0 C 62 % 81 % 0 % 1010,7 hPa 0,1 l/m 4,8 km/h (1 Bft) 0,00 h 6,8 km/h (2 Bft)
22.11.2009 06:00 17,2 C 12,8 C 0,0 UV-I 0,0 C 63 % 85 % 0 % 1010,0 hPa 0,3 l/m 4,9 km/h (1 Bft) 0,00 h 7,6 km/h (2 Bft)
22.11.2009 07:00 17,2 C 12,8 C 0,0 UV-I 0,0 C 64 % 86 % 0 % 1009,8 hPa 1,2 l/m 5,3 km/h (1 Bft) 0,00 h 7,2 km/h (2 Bft)
22.11.2009 08:00 16,9 C 12,6 C 0,0 UV-I 0,0 C 66 % 89 % 0 % 1010,5 hPa 0,9 l/m 6,0 km/h (2 Bft) 0,00 h 8,2 km/h (2 Bft)
22.11.2009 09:00 16,6 C 12,2 C 0,0 UV-I 0,0 C 65 % 87 % 0 % 1010,7 hPa 0,0 l/m 5,9 km/h (2 Bft) 0,00 h 9,9 km/h (2 Bft)
22.11.2009 10:00 16,6 C 12,6 C 0,8 UV-I 0,5 C 63 % 80 % 15 % 1011,1 hPa 0,0 l/m 8,9 km/h (2 Bft) 0,00 h 11,9 km/h (2 Bft)
22.11.2009 11:00 16,6 C 13,4 C 1,1 UV-I 0,8 C 61 % 74 % 24 % 1011,4 hPa 0,0 l/m 11,9 km/h (2 Bft) 0,00 h 18,2 km/h (3 Bft)
22.11.2009 12:00 16,6 C 14,0 C 1,4 UV-I 2,8 C 58 % 67 % 75 % 1010,7 hPa 0,0 l/m 9,9 km/h (2 Bft) 0,47 h 14,7 km/h (3 Bft)
22.11.2009 13:00 17,0 C 14,5 C 1,3 UV-I 2,6 C 56 % 64 % 75 % 1010,3 hPa 0,0 l/m 9,9 km/h (2 Bft) 0,53 h 14,0 km/h (3 Bft)
22.11.2009 14:00 17,6 C 14,8 C 0,7 UV-I 2,6 C 53 % 60 % 74 % 1010,6 hPa 0,0 l/m 8,3 km/h (2 Bft) 0,93 h 11,6 km/h (2 Bft)
22.11.2009 15:00 17,4 C 14,2 C 0,2 UV-I 0,4 C 51 % 61 % 11 % 1008,9 hPa 0,0 l/m 8,2 km/h (2 Bft) 0,10 h 13,3 km/h (3 Bft)
22.11.2009 16:00 17,0 C 13,4 C 0,0 UV-I 0,0 C 51 % 63 % 0 % 1007,6 hPa 0,0 l/m 7,0 km/h (2 Bft) 0,00 h 10,3 km/h (2 Bft)
22.11.2009 17:00 16,8 C 12,7 C 0,0 UV-I 0,0 C 52 % 65 % 0 % 1006,2 hPa 0,0 l/m 9,3 km/h (2 Bft) 0,00 h 13,2 km/h (3 Bft)
22.11.2009 18:00 16,9 C 11,8 C 0,0 UV-I 0,0 C 53 % 71 % 0 % 1006,6 hPa 3,2 l/m 11,1 km/h (2 Bft) 0,00 h 16,0 km/h (3 Bft)
22.11.2009 19:00 16,5 C 9,3 C 0,0 UV-I 0,0 C 55 % 83 % 0 % 1007,1 hPa 0,1 l/m 7,7 km/h (2 Bft) 0,00 h 10,8 km/h (2 Bft)
22.11.2009 20:00 16,3 C 9,6 C 0,0 UV-I 0,0 C 56 % 82 % 0 % 1006,9 hPa 0,0 l/m 8,4 km/h (2 Bft) 0,00 h 11,4 km/h (2 Bft)
22.11.2009 21:00 16,2 C 10,0 C 0,0 UV-I 0,0 C 55 % 78 % 0 % 1006,8 hPa 0,0 l/m 8,5 km/h (2 Bft) 0,00 h 10,2 km/h (2 Bft)
22.11.2009 22:00 16,2 C 9,9 C 0,0 UV-I 0,0 C 55 % 77 % 0 % 1006,6 hPa 0,0 l/m 6,1 km/h (2 Bft) 0,00 h 9,4 km/h (2 Bft)
22.11.2009 23:00 16,2 C 9,7 C 0,0 UV-I 0,0 C 54 % 76 % 0 % 1006,1 hPa 0,0 l/m 6,6 km/h (2 Bft) 0,00 h 9,7 km/h (2 Bft)
Min-Datum _ 18.11.09 16.11.09 16.11.09 16.11.09 19.11.09 19.11.09 16.11.09 16.11.09 - 16.11.09 - 16.11.09
_ Min-Zeit 07:58 03:30 00:00 00:00 13:54 12:46 00:00 13:14 - 00:00 - 00:00
Minimum _ 14,1 C 7,3 C 0,0 UV-I 0,0 C 50 % 53 % 0 % 1003,7 hPa - 0,0 km/h (0 Bft) - 0,0 km/h (0 Bft)
Max-Datum _ 20.11.09 20.11.09 19.11.09 20.11.09 16.11.09 16.11.09 19.11.09 21.11.09 22.11.09 18.11.09 19.11.09 22.11.09
_ Max-Zeit 14:19 14:04 12:02 10:56 15:12 04:26 10:14 06:34 18:36 15:50 10:06 18:42
Maximum _ 17,9 C 18,9 C 2,0 UV-I 7,4 C 69 % 94 % 100 % 1024,8 hPa 3,2 l/m 16,1 km/h
W (3 Bft)
0,03 h 56,6 km/h
N-NO (7 Bft)
Durchschnitt _ 16,1 C 11,9 C 0,2 UV-I 0,4 C 60 % 80 % 9 % 1014,5 hPa #9,5 l/m 4,8 km/h (1 Bft) #10:41 h 7,9 km/h (2 Bft)
© 2012 W. Hausmann